createdAt,value
2023-03-06T00:09:06.106Z,42.40
2023-03-06T00:14:49.656Z,41.53
2023-03-06T00:29:40.688Z,42.59
2023-03-06T00:40:58.923Z,43.89
2023-03-06T00:59:21.590Z,45.45
2023-03-06T01:01:51.347Z,45.47
2023-03-06T01:11:05.583Z,46.53
2023-03-06T01:32:31.058Z,46.76
2023-03-06T01:57:17.422Z,45.77
2023-03-06T02:05:53.359Z,45.60
2023-03-06T02:11:05.944Z,45.04
2023-03-06T02:25:46.778Z,43.46
2023-03-06T02:31:19.086Z,43.72
2023-03-06T02:40:41.358Z,43.53
2023-03-06T03:14:45.937Z,42.37
2023-03-06T03:42:42.249Z,43.75
2023-03-06T04:06:42.833Z,45.14
2023-03-06T04:21:26.245Z,44.56
2023-03-06T04:27:28.541Z,45.29
2023-03-06T04:35:56.187Z,44.40
2023-03-06T04:38:49.459Z,44.67
2023-03-06T04:41:24.053Z,43.75
2023-03-06T05:10:51.770Z,45.39
2023-03-06T05:13:18.933Z,45.94
2023-03-06T05:15:49.014Z,47.21
2023-03-06T05:18:16.362Z,46.11
2023-03-06T05:20:45.925Z,46.73
2023-03-06T05:23:14.720Z,46.20
2023-03-06T05:25:41.713Z,45.54
2023-03-06T05:28:10.930Z,46.53
2023-03-06T05:30:37.876Z,45.87
2023-03-06T05:33:04.632Z,46.62
2023-03-06T05:35:33.849Z,47.99
2023-03-06T05:38:00.463Z,48.42
2023-03-06T05:40:27.582Z,46.55
2023-03-06T05:42:54.093Z,47.08
2023-03-06T05:45:20.853Z,46.91
2023-03-06T05:47:48.914Z,47.22
2023-03-06T05:50:15.495Z,45.69
2023-03-06T05:52:43.080Z,45.49
2023-03-06T05:55:09.878Z,45.06
2023-03-06T05:57:36.697Z,44.96
2023-03-06T06:00:05.687Z,45.00
2023-03-06T06:02:32.592Z,45.91
2023-03-06T06:04:59.524Z,45.62
2023-03-06T06:07:26.172Z,49.02
2023-03-06T06:09:52.673Z,46.74
2023-03-06T06:12:19.622Z,46.66
2023-03-06T13:42:46.160Z,32.72
2023-03-06T15:53:04.371Z,16.27
2023-03-06T15:55:35.077Z,17.01
2023-03-06T15:58:06.398Z,14.75
2023-03-06T16:00:44.543Z,15.23
2023-03-06T16:03:31.433Z,14.94
2023-03-06T16:06:10.401Z,15.21
2023-03-06T16:08:55.787Z,14.42
2023-03-06T16:11:35.394Z,14.37
2023-03-06T16:14:14.095Z,13.16
2023-03-06T16:16:43.416Z,13.05
2023-03-06T16:19:26.430Z,13.13
2023-03-06T16:27:18.091Z,13.93
2023-03-06T16:29:50.589Z,14.36
2023-03-06T16:35:22.641Z,15.68
2023-03-06T16:37:51.845Z,14.43
2023-03-06T16:43:17.656Z,14.69
2023-03-06T16:46:12.730Z,14.90
2023-03-06T16:48:43.375Z,14.30
2023-03-06T16:51:19.177Z,13.75
2023-03-06T16:53:48.448Z,13.80
2023-03-06T16:56:25.565Z,13.83
2023-03-06T16:58:57.561Z,14.00
2023-03-06T17:02:03.908Z,13.44
2023-03-06T17:04:57.547Z,12.28
2023-03-06T17:07:27.256Z,11.82
2023-03-06T17:10:00.315Z,11.78
2023-03-06T17:12:33.411Z,10.87
2023-03-06T19:44:11.986Z,13.17
2023-03-06T20:09:37.547Z,14.81
2023-03-06T20:25:08.499Z,14.83
2023-03-06T20:27:38.807Z,15.02
2023-03-06T20:36:45.818Z,15.10
2023-03-06T20:42:17.288Z,22.86
2023-03-06T20:51:01.033Z,20.25
2023-03-06T20:53:33.080Z,47.53
2023-03-06T20:56:00.850Z,72.15
2023-03-06T20:58:29.651Z,18.04
2023-03-06T21:00:56.767Z,22.57
2023-03-06T21:03:23.508Z,17.40
2023-03-06T21:05:51.141Z,23.26
2023-03-06T21:08:21.989Z,17.07
2023-03-06T21:10:54.750Z,16.13
2023-03-06T21:13:22.267Z,15.20
2023-03-06T21:15:54.555Z,15.94
2023-03-06T21:18:21.976Z,15.82
2023-03-06T21:20:52.953Z,14.86
2023-03-06T21:23:20.312Z,14.82
2023-03-06T21:25:50.227Z,15.41
2023-03-06T21:28:18.965Z,15.59
2023-03-06T21:30:48.356Z,14.92
2023-03-06T21:33:15.183Z,14.82
2023-03-06T21:35:44.316Z,14.45
2023-03-06T21:38:11.137Z,19.23
2023-03-06T21:40:38.276Z,19.69
2023-03-06T21:43:06.812Z,22.32
2023-03-06T21:45:38.185Z,15.92
2023-03-06T21:48:08.827Z,14.88
2023-03-06T21:50:37.192Z,14.77
2023-03-06T21:53:13.395Z,14.70
2023-03-06T21:55:42.110Z,15.04
2023-03-06T21:58:09.445Z,14.33
2023-03-06T22:00:36.850Z,13.86
2023-03-06T22:03:04.278Z,14.61
2023-03-06T22:05:31.283Z,14.26
2023-03-06T22:08:00.915Z,14.28
2023-03-06T22:10:27.993Z,14.90
2023-03-06T22:12:55.100Z,14.30
2023-03-06T22:15:22.024Z,14.39
2023-03-06T22:17:48.894Z,14.10
2023-03-06T22:20:16.478Z,14.01
2023-03-06T22:22:45.058Z,14.41
2023-03-06T22:25:14.430Z,14.72
2023-03-06T22:27:41.701Z,14.83
2023-03-06T22:30:11.435Z,14.48
2023-03-06T22:32:41.188Z,13.84
2023-03-06T22:35:08.604Z,15.33
2023-03-06T22:37:35.374Z,14.58
2023-03-06T22:40:02.489Z,15.58
2023-03-06T22:42:29.587Z,14.07
2023-03-06T22:44:56.236Z,14.50
2023-03-06T22:47:24.557Z,14.00
2023-03-06T22:49:53.196Z,14.32
2023-03-06T22:52:20.574Z,14.44
2023-03-06T22:54:49.526Z,14.70
2023-03-06T22:57:16.394Z,15.11
2023-03-06T22:59:43.889Z,14.38
2023-03-06T23:02:11.517Z,15.19
2023-03-06T23:04:39.032Z,13.85
2023-03-06T23:07:09.393Z,14.34
2023-03-06T23:10:21.197Z,14.49
2023-03-06T23:15:51.985Z,14.00
2023-03-06T23:20:47.923Z,13.82
2023-03-06T23:23:15.405Z,14.10
2023-03-06T23:25:42.884Z,13.72
2023-03-06T23:28:09.787Z,13.22
2023-03-06T23:30:39.822Z,13.65
2023-03-06T23:33:08.888Z,13.30
2023-03-06T23:35:36.252Z,13.46
2023-03-06T23:40:59.333Z,13.24
2023-03-06T23:43:25.878Z,13.31
2023-03-06T23:45:52.720Z,13.83
2023-03-06T23:48:20.639Z,14.12
2023-03-06T23:50:48.085Z,13.84
2023-03-06T23:53:14.958Z,14.56
2023-03-06T23:55:41.912Z,14.36
2023-03-06T23:58:11.434Z,14.30
